Time;durP1;ratioP1;P1;durP2;ratioP2;P2;SDS_P1;SDS_P2;PMS_P1;PMS_P2;Temp;Humidity;BMP_temperature;BMP_pressure;BME280_temperature;BME280_humidity;BME280_pressure;Samples;Min_cycle;Max_cycle;Signal;HPM_P1;HPM_P2
2023/10/28 00:00:33;;;;;;;11.35;2.50;;;;;;;12.16;100.00;99490.59;5264408;28;20070;-71
2023/10/28 00:03:05;;;;;;;16.13;2.47;;;;;;;12.14;100.00;99506.09;5264105;28;20028;-71
2023/10/28 00:05:35;;;;;;;15.35;2.70;;;;;;;12.13;100.00;99500.91;5264258;28;20020;-71
2023/10/28 00:08:07;;;;;;;11.45;2.72;;;;;;;12.12;100.00;99491.22;5264697;28;20092;-72
2023/10/28 00:10:40;;;;;;;10.00;2.60;;;;;;;12.08;100.00;99501.53;5259760;28;20024;-71
2023/10/28 00:13:14;;;;;;;9.05;2.35;;;;;;;12.02;100.00;99498.88;5262756;28;20390;-72
2023/10/28 00:15:44;;;;;;;8.45;2.72;;;;;;;12.05;100.00;99501.13;5262282;28;20028;-71
2023/10/28 00:18:15;;;;;;;9.70;2.65;;;;;;;12.03;100.00;99495.97;5264411;28;20508;-72
2023/10/28 00:20:46;;;;;;;8.27;1.70;;;;;;;11.99;100.00;99505.47;5262517;28;20043;-71
2023/10/28 00:23:17;;;;;;;8.82;2.08;;;;;;;12.01;100.00;99499.91;5261267;28;20078;-72
2023/10/28 00:25:47;;;;;;;9.18;2.38;;;;;;;12.02;100.00;99497.00;5260890;28;20507;-73
2023/10/28 00:28:18;;;;;;;15.18;1.90;;;;;;;12.01;100.00;99490.00;5263704;28;20024;-72
2023/10/28 00:30:48;;;;;;;7.25;1.75;;;;;;;12.00;100.00;99492.88;5267074;28;20047;-72
2023/10/28 00:33:19;;;;;;;6.68;1.70;;;;;;;12.01;100.00;99481.09;5260359;28;20125;-72
2023/10/28 00:35:49;;;;;;;7.88;1.50;;;;;;;11.99;100.00;99486.66;5266747;28;20036;-74
2023/10/28 00:38:20;;;;;;;6.68;1.73;;;;;;;11.96;100.00;99483.59;5261401;28;20043;-74
2023/10/28 00:40:50;;;;;;;10.35;2.30;;;;;;;11.98;100.00;99490.38;5266812;28;20103;-72
2023/10/28 00:43:22;;;;;;;6.80;1.55;;;;;;;11.93;100.00;99480.25;5263499;28;20028;-72
2023/10/28 00:45:54;;;;;;;9.32;2.38;;;;;;;11.99;100.00;99492.03;5264281;28;20019;-72
2023/10/28 00:48:26;;;;;;;8.85;1.80;;;;;;;12.00;100.00;99484.78;5263760;28;20043;-72
2023/10/28 00:50:58;;;;;;;5.57;1.90;;;;;;;12.02;100.00;99485.44;5264153;28;20509;-72
2023/10/28 00:53:30;;;;;;;7.22;1.67;;;;;;;11.99;100.00;99491.22;5266068;28;20494;-72
2023/10/28 00:56:01;;;;;;;9.40;2.60;;;;;;;12.02;100.00;99480.06;5264539;28;20028;-72
2023/10/28 00:58:34;;;;;;;6.05;2.00;;;;;;;11.95;100.00;99477.38;5265617;28;20096;-74
2023/10/28 01:01:08;;;;;;;5.28;1.80;;;;;;;11.92;100.00;99472.41;5263252;28;20031;-74
2023/10/28 01:03:40;;;;;;;9.05;2.00;;;;;;;11.97;100.00;99478.00;5263482;28;20492;-72
2023/10/28 01:06:12;;;;;;;10.88;1.80;;;;;;;12.01;100.00;99478.41;5260648;28;20570;-72
2023/10/28 01:08:42;;;;;;;7.97;1.45;;;;;;;11.98;100.00;99473.44;5266036;28;20624;-71
2023/10/28 01:11:14;;;;;;;4.60;1.52;;;;;;;11.97;100.00;99474.47;5251437;28;20032;-72
2023/10/28 01:13:45;;;;;;;6.93;1.70;;;;;;;11.93;100.00;99469.50;5262750;28;20039;-71
2023/10/28 01:16:15;;;;;;;9.32;1.40;;;;;;;11.93;100.00;99474.06;5260285;28;20036;-71
2023/10/28 01:18:54;;;;;;;7.28;1.80;;;;;;;11.90;100.00;99471.81;5264610;28;20032;-72
2023/10/28 01:21:25;;;;;;;9.07;1.80;;;;;;;11.84;100.00;99467.25;5255259;28;20032;-72
2023/10/28 01:23:56;;;;;;;7.88;2.38;;;;;;;11.81;100.00;99473.84;5256311;28;20035;-72
2023/10/28 01:26:27;;;;;;;7.93;2.05;;;;;;;11.75;100.00;99480.06;5261430;28;20027;-72
2023/10/28 01:28:57;;;;;;;7.10;2.03;;;;;;;11.67;100.00;99470.31;5263432;28;20024;-72
2023/10/28 01:31:28;;;;;;;6.32;2.17;;;;;;;11.73;100.00;99475.91;5262341;28;20024;-74
2023/10/28 01:33:58;;;;;;;7.30;2.00;;;;;;;11.66;100.00;99470.53;5264352;28;20028;-73
2023/10/28 01:36:29;;;;;;;6.22;2.13;;;;;;;11.69;100.00;99470.09;5264793;28;20028;-72
2023/10/28 01:38:59;;;;;;;9.43;2.13;;;;;;;11.62;100.00;99475.50;5263987;28;20374;-72
2023/10/28 01:41:30;;;;;;;7.47;1.88;;;;;;;11.61;100.00;99473.84;5264709;28;20028;-72
2023/10/28 01:44:00;;;;;;;6.90;2.10;;;;;;;11.56;100.00;99476.31;5264132;28;20036;-74
2023/10/28 01:46:31;;;;;;;4.68;1.95;;;;;;;11.52;100.00;99469.69;5262964;28;20020;-72
2023/10/28 01:49:03;;;;;;;8.10;1.92;;;;;;;11.47;100.00;99474.03;5265329;28;20027;-72
2023/10/28 01:51:33;;;;;;;7.22;2.28;;;;;;;11.43;100.00;99465.56;5263955;28;20458;-73
2023/10/28 01:54:04;;;;;;;9.43;2.35;;;;;;;11.38;100.00;99468.84;5263671;28;20048;-71
2023/10/28 01:56:43;;;;;;;8.35;2.25;;;;;;;11.33;100.00;99457.09;5264583;28;20028;-72
2023/10/28 01:59:22;;;;;;;8.63;2.55;;;;;;;11.36;100.00;99464.75;5262823;28;20085;-72
2023/10/28 02:01:53;;;;;;;6.40;2.35;;;;;;;11.37;100.00;99464.53;5263902;28;20459;-72
2023/10/28 02:04:23;;;;;;;6.90;2.20;;;;;;;11.43;100.00;99467.41;5264100;28;20089;-72
2023/10/28 02:06:54;;;;;;;9.63;2.63;;;;;;;11.38;100.00;99462.66;5264908;28;20031;-73
2023/10/28 02:09:26;;;;;;;7.00;1.83;;;;;;;11.33;100.00;99460.59;5262479;28;20020;-72
2023/10/28 02:11:56;;;;;;;5.63;2.15;;;;;;;11.35;100.00;99463.09;5260597;28;20388;-72
2023/10/28 02:14:27;;;;;;;8.20;2.33;;;;;;;11.32;100.00;99463.50;5261371;28;20027;-73
2023/10/28 02:16:59;;;;;;;5.68;2.00;;;;;;;11.38;100.00;99470.72;5262879;28;20086;-73
2023/10/28 02:19:29;;;;;;;4.50;1.98;;;;;;;11.35;100.00;99463.09;5261613;28;20404;-74
2023/10/28 02:22:06;;;;;;;9.30;2.67;;;;;;;11.41;100.00;99473.00;5259162;28;20134;-71
2023/10/28 02:24:37;;;;;;;3.10;1.70;;;;;;;11.46;100.00;99475.91;5254556;28;20487;-71
2023/10/28 02:27:07;;;;;;;7.63;2.35;;;;;;;11.44;100.00;99471.75;5264496;28;20485;-71
2023/10/28 02:29:38;;;;;;;7.00;2.53;;;;;;;11.49;100.00;99474.66;5258482;28;20024;-72
2023/10/28 02:32:09;;;;;;;7.70;1.80;;;;;;;11.55;100.00;99480.06;5260588;28;20024;-71
2023/10/28 02:34:41;;;;;;;8.02;2.17;;;;;;;11.55;100.00;99480.06;5263074;28;20801;-71
2023/10/28 02:37:14;;;;;;;7.15;2.25;;;;;;;11.52;100.00;99469.69;5255744;28;20032;-72
2023/10/28 02:39:44;;;;;;;4.22;1.80;;;;;;;11.60;100.00;99474.88;5259591;28;20110;-71
2023/10/28 02:42:15;;;;;;;10.20;2.00;;;;;;;11.64;100.00;99464.53;5263461;28;20031;-72
2023/10/28 02:44:46;;;;;;;6.43;2.00;;;;;;;11.68;100.00;99458.53;5257593;28;20088;-72
2023/10/28 02:47:17;;;;;;;12.15;2.38;;;;;;;11.65;100.00;99458.16;5262263;28;20481;-72
2023/10/28 02:49:47;;;;;;;7.40;2.67;;;;;;;11.67;100.00;99442.63;5263068;28;20024;-72
2023/10/28 02:52:18;;;;;;;7.05;2.08;;;;;;;11.67;100.00;99440.78;5263411;28;20035;-71
2023/10/28 02:54:48;;;;;;;8.88;2.05;;;;;;;11.76;100.00;99440.56;5262091;28;20024;-72
2023/10/28 02:57:19;;;;;;;10.73;3.38;;;;;;;11.74;100.00;99437.25;5262615;28;20038;-71
2023/10/28 02:59:49;;;;;;;4.57;1.75;;;;;;;11.72;100.00;99447.41;5262257;28;20136;-72
2023/10/28 03:02:20;;;;;;;8.70;2.13;;;;;;;11.80;100.00;99439.13;5263335;28;20123;-71
2023/10/28 03:04:50;;;;;;;7.38;2.03;;;;;;;11.77;100.00;99437.66;5261714;28;20028;-71
2023/10/28 03:07:21;;;;;;;9.82;3.15;;;;;;;11.74;100.00;99442.63;5262897;28;20534;-72
2023/10/28 03:09:51;;;;;;;14.23;3.25;;;;;;;11.73;100.00;99438.28;5259118;28;20032;-71
2023/10/28 03:12:22;;;;;;;7.50;1.75;;;;;;;11.79;100.00;99437.47;5267070;28;20036;-72
2023/10/28 03:14:53;;;;;;;9.35;1.98;;;;;;;11.80;100.00;99429.22;5259395;28;20031;-72
2023/10/28 03:17:24;;;;;;;7.60;1.90;;;;;;;11.78;100.00;99427.75;5258975;28;20029;-71
2023/10/28 03:19:54;;;;;;;6.63;2.00;;;;;;;11.90;100.00;99423.44;5265926;28;20679;-71
2023/10/28 03:22:25;;;;;;;10.60;2.17;;;;;;;11.93;100.00;99420.31;5265991;28;20035;-72
2023/10/28 03:24:56;;;;;;;10.20;2.35;;;;;;;11.88;100.00;99418.25;5261536;28;20016;-72
2023/10/28 03:27:26;;;;;;;9.50;2.28;;;;;;;11.83;100.00;99422.59;5266402;28;20020;-72
2023/10/28 03:29:58;;;;;;;7.28;4.00;;;;;;;11.87;100.00;99418.47;5265615;28;20499;-72
2023/10/28 03:32:31;;;;;;;8.45;2.20;;;;;;;11.85;100.00;99420.56;5265891;28;20026;-71
2023/10/28 03:35:02;;;;;;;12.95;2.33;;;;;;;11.88;100.00;99412.88;5265444;28;20028;-71
2023/10/28 03:37:34;;;;;;;8.00;2.53;;;;;;;11.90;100.00;99421.56;5265319;28;20393;-71
2023/10/28 03:40:05;;;;;;;6.20;2.15;;;;;;;11.96;100.00;99416.41;5265562;28;20031;-72
2023/10/28 03:42:36;;;;;;;10.95;2.50;;;;;;;11.88;100.00;99420.13;5265157;28;20032;-72
2023/10/28 03:45:07;;;;;;;9.98;2.75;;;;;;;11.88;100.00;99414.75;5265326;28;20016;-71
2023/10/28 03:47:38;;;;;;;5.93;2.45;;;;;;;11.91;100.00;99417.84;5265617;28;20042;-71
2023/10/28 03:50:09;;;;;;;13.18;3.03;;;;;;;11.93;100.00;99420.31;5260646;28;20024;-72
2023/10/28 03:52:40;;;;;;;8.70;2.33;;;;;;;11.98;100.00;99422.38;5263709;28;20031;-72
2023/10/28 03:55:11;;;;;;;10.35;2.80;;;;;;;12.02;100.00;99419.06;5262959;28;20562;-72
2023/10/28 03:57:41;;;;;;;9.85;2.60;;;;;;;12.00;100.00;99422.97;5260266;28;20032;-72
2023/10/28 04:00:13;;;;;;;6.32;2.28;;;;;;;11.89;100.00;99419.06;5265696;28;20020;-72
2023/10/28 04:02:43;;;;;;;10.52;3.13;;;;;;;12.03;100.00;99422.56;5268107;28;20043;-72
2023/10/28 04:05:14;;;;;;;9.80;2.65;;;;;;;11.97;100.00;99418.88;5261267;28;20027;-72
2023/10/28 04:07:45;;;;;;;9.73;2.47;;;;;;;11.97;100.00;99412.66;5265737;28;20282;-71
2023/10/28 04:10:15;;;;;;;9.70;2.70;;;;;;;12.08;100.00;99418.22;5271401;28;20051;-72
2023/10/28 04:12:46;;;;;;;6.25;2.13;;;;;;;12.01;100.00;99417.41;5265819;28;20477;-72
2023/10/28 04:15:18;;;;;;;11.80;3.20;;;;;;;12.01;100.00;99414.72;5265242;28;20027;-72
2023/10/28 04:17:49;;;;;;;7.15;2.17;;;;;;;12.10;100.00;99415.34;5260651;28;20053;-71
2023/10/28 04:20:19;;;;;;;10.35;2.58;;;;;;;12.10;100.00;99413.47;5266891;28;20024;-71
2023/10/28 04:22:50;;;;;;;8.88;2.15;;;;;;;12.06;100.00;99412.22;5264560;28;20447;-71
2023/10/28 04:25:20;;;;;;;11.25;2.10;;;;;;;12.01;100.00;99414.72;5257447;28;20020;-72
2023/10/28 04:27:51;;;;;;;7.35;2.22;;;;;;;12.09;100.00;99409.09;5265831;28;20028;-72
2023/10/28 04:30:21;;;;;;;10.40;2.22;;;;;;;12.12;100.00;99408.69;5263234;28;20107;-71
2023/10/28 04:32:52;;;;;;;8.13;2.55;;;;;;;12.15;100.00;99416.34;5261230;28;20028;-72
2023/10/28 04:35:23;;;;;;;9.40;1.73;;;;;;;12.15;100.00;99410.97;5265364;28;20040;-71
2023/10/28 04:37:55;;;;;;;8.18;2.70;;;;;;;12.15;100.00;99410.97;5270698;28;20051;-72
2023/10/28 04:40:26;;;;;;;21.77;2.70;;;;;;;12.23;100.00;99409.91;5260640;28;20103;-71
2023/10/28 04:43:01;;;;;;;8.05;2.00;;;;;;;12.22;100.00;99405.56;5262502;28;20035;-72
2023/10/28 04:45:31;;;;;;;7.07;1.88;;;;;;;12.23;100.00;99401.00;5270966;28;20027;-71
2023/10/28 04:48:02;;;;;;;6.55;2.00;;;;;;;12.23;100.00;99409.06;5264982;28;20627;-71
2023/10/28 04:50:32;;;;;;;9.98;2.40;;;;;;;12.24;100.00;99416.09;5269188;28;20028;-73
2023/10/28 04:53:03;;;;;;;7.00;2.30;;;;;;;12.15;100.00;99416.34;5267073;28;20073;-71
2023/10/28 04:55:34;;;;;;;11.55;2.13;;;;;;;12.12;100.00;99405.19;5263727;28;20159;-71
2023/10/28 04:58:05;;;;;;;8.05;2.47;;;;;;;12.21;100.00;99414.69;5268851;28;20027;-72
2023/10/28 05:00:36;;;;;;;7.25;1.85;;;;;;;12.14;100.00;99398.53;5268006;28;20031;-71
2023/10/28 05:03:07;;;;;;;6.13;2.25;;;;;;;12.24;100.00;99406.16;5259845;28;20069;-71
2023/10/28 05:05:37;;;;;;;9.50;2.20;;;;;;;12.19;100.00;99405.97;5271494;28;20110;-72
2023/10/28 05:08:08;;;;;;;21.60;2.83;;;;;;;12.19;100.00;99401.44;5270693;28;20024;-71
2023/10/28 05:10:38;;;;;;;8.40;2.15;;;;;;;12.14;100.00;99393.16;5258514;28;20020;-71
2023/10/28 05:13:10;;;;;;;12.38;2.55;;;;;;;12.22;100.00;99399.38;5266793;28;20096;-71
2023/10/28 05:15:40;;;;;;;16.10;2.38;;;;;;;12.13;100.00;99396.91;5264628;28;20032;-70
2023/10/28 05:18:12;;;;;;;15.35;2.53;;;;;;;12.21;100.00;99397.72;5273331;28;20488;-71
2023/10/28 05:20:43;;;;;;;5.72;2.35;;;;;;;12.23;100.00;99395.63;5265318;28;20024;-70
2023/10/28 05:23:13;;;;;;;7.18;2.42;;;;;;;12.29;100.00;99400.97;5247670;28;20027;-71
2023/10/28 05:25:44;;;;;;;16.02;3.00;;;;;;;12.26;100.00;99395.22;5262561;28;20059;-70
2023/10/28 05:28:15;;;;;;;11.77;1.98;;;;;;;12.20;100.00;99396.91;5269895;28;20019;-71
2023/10/28 05:30:46;;;;;;;12.57;2.00;;;;;;;12.16;100.00;99393.81;5261467;28;20031;-71
2023/10/28 05:33:17;;;;;;;14.60;2.58;;;;;;;12.26;100.00;99395.22;5260393;28;20023;-70
2023/10/28 05:35:48;;;;;;;12.70;2.60;;;;;;;12.25;100.00;99390.84;5260422;28;20489;-71
2023/10/28 05:38:20;;;;;;;12.30;2.78;;;;;;;12.19;100.00;99393.34;5265612;28;20091;-70
2023/10/28 05:40:50;;;;;;;11.10;2.30;;;;;;;12.22;100.00;99394.81;5260880;28;20394;-71
2023/10/28 05:43:21;;;;;;;18.48;3.17;;;;;;;12.13;100.00;99393.38;5262575;28;20028;-71
2023/10/28 05:45:52;;;;;;;9.77;2.67;;;;;;;12.20;100.00;99396.91;5265144;28;20016;-70
2023/10/28 05:48:22;;;;;;;11.45;2.20;;;;;;;12.19;100.00;99397.91;5261204;28;20112;-71
2023/10/28 05:50:55;;;;;;;13.05;2.83;;;;;;;12.24;100.00;99398.09;5263381;28;20017;-71
2023/10/28 05:53:26;;;;;;;11.27;3.47;;;;;;;12.26;100.00;99393.34;5263201;28;20039;-71
2023/10/28 05:55:57;;;;;;;10.10;2.53;;;;;;;12.23;100.00;99398.31;5262615;28;20081;-71
2023/10/28 05:58:28;;;;;;;11.70;2.80;;;;;;;12.22;100.00;99402.06;5261840;28;20028;-70
2023/10/28 06:00:59;;;;;;;10.13;2.17;;;;;;;12.27;100.00;99403.06;5261975;28;20032;-70
2023/10/28 06:03:30;;;;;;;14.40;3.15;;;;;;;12.37;100.00;99400.75;5264656;28;20023;-71
2023/10/28 06:06:00;;;;;;;15.50;3.05;;;;;;;12.33;100.00;99404.06;5264759;28;20020;-71
2023/10/28 06:08:31;;;;;;;16.83;2.95;;;;;;;12.27;100.00;99415.69;5264645;28;20032;-70
2023/10/28 06:11:01;;;;;;;12.60;2.45;;;;;;;12.34;100.00;99409.22;5260027;28;20027;-71
2023/10/28 06:13:32;;;;;;;13.75;3.00;;;;;;;12.26;100.00;99416.72;5260195;28;20035;-71
2023/10/28 06:16:03;;;;;;;17.23;3.47;;;;;;;12.31;100.00;99409.69;5262539;28;20022;-71
2023/10/28 06:18:33;;;;;;;16.92;3.28;;;;;;;12.23;100.00;99409.91;5269259;28;20028;-71
2023/10/28 06:21:04;;;;;;;14.23;2.60;;;;;;;12.15;100.00;99405.59;5270515;28;20111;-71
2023/10/28 06:23:35;;;;;;;11.45;2.40;;;;;;;12.26;100.00;99414.03;5266056;28;20420;-70
2023/10/28 06:26:07;;;;;;;11.45;1.92;;;;;;;12.23;100.00;99409.06;5259533;28;20016;-71
2023/10/28 06:28:38;;;;;;;21.30;3.90;;;;;;;12.29;100.00;99402.84;5261937;28;20073;-71
2023/10/28 06:31:09;;;;;;;14.75;2.88;;;;;;;12.31;100.00;99409.69;5266926;28;20031;-71
2023/10/28 06:33:39;;;;;;;12.77;2.47;;;;;;;12.33;100.00;99414.84;5265034;28;20024;-71
2023/10/28 06:36:10;;;;;;;14.07;2.25;;;;;;;12.40;100.00;99421.03;5262756;28;20689;-70
2023/10/28 06:38:40;;;;;;;9.63;3.05;;;;;;;12.39;100.00;99422.03;5264857;28;20073;-71
2023/10/28 06:41:11;;;;;;;10.93;2.05;;;;;;;12.39;100.00;99419.34;5257501;28;20528;-71
2023/10/28 06:43:41;;;;;;;17.75;2.58;;;;;;;12.35;100.00;99426.19;5255141;28;20037;-70
2023/10/28 06:46:11;;;;;;;13.20;2.83;;;;;;;12.38;100.00;99426.59;5268000;28;20023;-71
2023/10/28 06:48:42;;;;;;;16.55;2.38;;;;;;;12.40;100.00;99427.22;5266448;28;20648;-71
2023/10/28 06:51:13;;;;;;;11.60;2.92;;;;;;;12.47;100.00;99427.19;5264788;28;20085;-71
2023/10/28 06:53:44;;;;;;;6.82;2.33;;;;;;;12.41;100.00;99428.88;5261667;28;20031;-71
2023/10/28 06:56:15;;;;;;;10.02;2.10;;;;;;;12.40;100.00;99423.72;5273539;28;20026;-71
2023/10/28 06:58:46;;;;;;;9.40;2.05;;;;;;;12.50;100.00;99434.00;5257296;28;20020;-71
2023/10/28 07:01:16;;;;;;;9.60;2.30;;;;;;;12.51;100.00;99431.13;5265468;28;20032;-71
2023/10/28 07:03:47;;;;;;;11.07;1.98;;;;;;;12.56;100.00;99434.00;5267961;28;20078;-71
2023/10/28 07:06:18;;;;;;;15.48;2.75;;;;;;;12.49;100.00;99433.19;5264960;28;20033;-71
2023/10/28 07:08:48;;;;;;;15.07;2.80;;;;;;;12.54;100.00;99436.06;5265648;28;20016;-71
2023/10/28 07:11:19;;;;;;;10.98;2.00;;;;;;;12.50;100.00;99440.25;5264787;28;20106;-71
2023/10/28 07:13:49;;;;;;;10.93;1.67;;;;;;;12.64;100.00;99441.81;5266724;28;20102;-71
2023/10/28 07:16:20;;;;;;;12.23;3.13;;;;;;;12.64;100.00;99435.59;5266091;28;20031;-71
2023/10/28 07:18:50;;;;;;;14.20;2.30;;;;;;;12.65;100.00;99446.16;5269202;28;20020;-71
2023/10/28 07:21:21;;;;;;;8.30;2.17;;;;;;;12.68;100.00;99445.72;5263479;28;20101;-71
2023/10/28 07:23:51;;;;;;;13.52;2.20;;;;;;;12.64;100.00;99457.94;5259726;28;20504;-71
2023/10/28 07:26:22;;;;;;;10.65;2.30;;;;;;;12.81;100.00;99460.19;5261946;28;20045;-71
2023/10/28 07:28:53;;;;;;;7.28;1.73;;;;;;;12.79;100.00;99460.38;5267022;28;20701;-71
2023/10/28 07:31:23;;;;;;;9.95;2.30;;;;;;;12.74;100.00;99464.75;5267292;28;20020;-71
2023/10/28 07:33:56;;;;;;;11.73;2.35;;;;;;;12.75;100.00;99464.56;5266361;28;20107;-71
2023/10/28 07:36:26;;;;;;;6.47;2.28;;;;;;;12.88;100.00;99472.53;5269618;28;20054;-71
2023/10/28 07:38:57;;;;;;;7.80;2.08;;;;;;;12.99;100.00;99481.81;5263661;28;20028;-72
2023/10/28 07:41:29;;;;;;;13.50;2.00;;;;;;;13.14;100.00;99482.34;5264094;28;20023;-72
2023/10/28 07:44:00;;;;;;;7.05;2.00;;;;;;;13.25;100.00;99480.03;5266120;28;20020;-71
2023/10/28 07:46:30;;;;;;;12.68;2.42;;;;;;;13.29;100.00;99486.63;5264171;28;20396;-72
2023/10/28 07:49:01;;;;;;;9.88;1.98;;;;;;;13.26;100.00;99485.22;5266490;28;20111;-72
2023/10/28 07:51:31;;;;;;;6.57;1.65;;;;;;;13.25;100.00;99482.72;5266846;28;20076;-71
2023/10/28 07:54:03;;;;;;;14.05;2.40;;;;;;;13.25;100.00;99490.81;5261565;28;20023;-71
2023/10/28 07:56:34;;;;;;;15.43;1.70;;;;;;;13.17;100.00;99492.69;5262334;28;20524;-71
2023/10/28 07:59:04;;;;;;;4.68;1.40;;;;;;;13.34;100.00;99495.72;5270576;28;20028;-71
2023/10/28 08:01:34;;;;;;;9.63;1.83;;;;;;;13.62;100.00;99495.34;5262547;28;20016;-71
2023/10/28 08:04:05;;;;;;;16.65;2.22;;;;;;;13.86;100.00;99498.25;5262931;28;20013;-71
2023/10/28 08:06:36;;;;;;;7.05;1.45;;;;;;;14.00;100.00;99495.19;5263790;28;20091;-71
2023/10/28 08:09:08;;;;;;;8.82;1.58;;;;;;;14.01;100.00;99504.16;5263474;28;20020;-71
2023/10/28 08:11:40;;;;;;;8.15;1.73;;;;;;;14.04;100.00;99502.88;5262368;28;20034;-71
2023/10/28 08:14:10;;;;;;;7.75;1.90;;;;;;;14.45;100.00;99510.34;5266936;28;20032;-71
2023/10/28 08:16:41;;;;;;;7.25;1.67;;;;;;;14.71;100.00;99510.09;5264006;28;20028;-71
2023/10/28 08:19:12;;;;;;;9.38;1.35;;;;;;;14.79;100.00;99505.44;5261173;28;20024;-71
2023/10/28 08:21:42;;;;;;;6.80;1.73;;;;;;;14.73;100.00;99507.97;5269767;28;20028;-71
2023/10/28 08:24:15;;;;;;;10.88;2.13;;;;;;;14.58;100.00;99512.94;5262100;28;20047;-71
2023/10/28 08:26:45;;;;;;;8.93;1.85;;;;;;;14.65;100.00;99518.25;5259024;28;20021;-71
2023/10/28 08:29:16;;;;;;;10.32;1.80;;;;;;;14.48;100.00;99509.94;5264035;28;20034;-71
2023/10/28 08:31:48;;;;;;;8.45;1.80;;;;;;;14.74;100.00;99516.91;5263292;28;20059;-71
2023/10/28 08:34:18;;;;;;;8.88;2.03;;;;;;;14.93;100.00;99523.13;5261109;28;20028;-72
2023/10/28 08:36:48;;;;;;;5.05;1.70;;;;;;;15.31;100.00;99530.09;5263122;28;20016;-71
2023/10/28 08:39:19;;;;;;;10.55;1.73;;;;;;;15.40;100.00;99526.00;5262726;28;20111;-71
2023/10/28 08:41:50;;;;;;;6.30;1.17;;;;;;;15.57;100.00;99532.44;5262859;28;20107;-71
2023/10/28 08:44:27;;;;;;;9.05;1.50;;;;;;;15.53;100.00;99531.25;5266313;28;20053;-71
2023/10/28 08:46:59;;;;;;;7.82;1.65;;;;;;;15.36;100.00;99525.69;5266099;28;20016;-71
2023/10/28 08:49:31;;;;;;;7.05;1.27;;;;;;;15.37;100.00;99540.00;5260433;28;20457;-71
2023/10/28 08:52:04;;;;;;;10.02;1.40;;;;;;;15.52;100.00;99537.72;5265345;28;20473;-71
2023/10/28 08:54:35;;;;;;;6.30;1.45;;;;;;;15.70;100.00;99531.44;5263351;28;20036;-71
2023/10/28 08:57:07;;;;;;;5.03;1.23;;;;;;;15.60;100.00;99531.97;5258840;28;20048;-71
2023/10/28 08:59:38;;;;;;;5.05;1.10;;;;;;;16.01;100.00;99535.72;5261084;28;20095;-71
2023/10/28 09:02:12;;;;;;;4.45;1.30;;;;;;;15.91;100.00;99539.00;5261660;28;20085;-71
2023/10/28 09:04:42;;;;;;;6.03;1.67;;;;;;;15.91;100.00;99533.56;5261840;28;20027;-71
2023/10/28 09:07:14;;;;;;;9.10;1.23;;;;;;;16.52;100.00;99539.63;5264924;28;20367;-71
2023/10/28 09:09:45;;;;;;;7.03;1.33;;;;;;;16.88;100.00;99540.44;5259925;28;20028;-71
2023/10/28 09:12:16;;;;;;;5.75;1.38;;;;;;;16.83;100.00;99539.25;5257914;28;20674;-71
2023/10/28 09:14:47;;;;;;;9.00;2.00;;;;;;;16.53;100.00;99546.69;5257976;28;20024;-71
2023/10/28 09:17:20;;;;;;;8.15;1.67;;;;;;;16.52;100.00;99545.03;5262205;28;20066;-71
2023/10/28 09:19:52;;;;;;;6.25;1.40;;;;;;;16.55;100.00;99552.66;5261547;28;20035;-71
2023/10/28 09:22:24;;;;;;;6.90;1.70;;;;;;;16.72;100.00;99550.94;5261410;28;20028;-72
2023/10/28 09:24:54;;;;;;;9.60;1.60;;;;;;;16.45;100.00;99550.56;5256030;28;20024;-72
2023/10/28 09:27:25;;;;;;;10.15;1.77;;;;;;;16.22;100.00;99545.97;5262025;28;20654;-72
2023/10/28 09:30:04;;;;;;;7.32;1.45;;;;;;;16.34;100.00;99558.69;5261412;28;20016;-72
2023/10/28 09:32:35;;;;;;;9.93;1.63;;;;;;;16.19;100.00;99578.09;5261304;28;20036;-72
2023/10/28 09:35:07;;;;;;;13.05;1.98;;;;;;;15.99;100.00;99560.28;5261758;28;20055;-71
2023/10/28 09:37:40;;;;;;;9.65;2.15;;;;;;;16.04;100.00;99556.91;5262215;28;20051;-71
2023/10/28 09:40:12;;;;;;;11.57;1.70;;;;;;;15.74;100.00;99562.34;5258135;28;20106;-71
2023/10/28 09:42:43;;;;;;;7.90;1.75;;;;;;;15.66;100.00;99565.38;5260869;28;20070;-71
2023/10/28 09:45:14;;;;;;;11.35;1.92;;;;;;;15.59;100.00;99565.44;5257948;28;20048;-71
2023/10/28 09:48:00;;;;;;;9.63;1.80;;;;;;;15.55;100.00;99575.88;5259629;28;20210;-71
2023/10/28 09:50:39;;;;;;;9.77;1.70;;;;;;;15.61;100.00;99565.22;5257036;28;20024;-71
2023/10/28 09:53:17;;;;;;;8.70;2.00;;;;;;;15.44;100.00;99567.75;5256892;28;20036;-71
2023/10/28 09:55:54;;;;;;;11.00;2.38;;;;;;;15.35;100.00;99571.81;5255542;28;20103;-71
2023/10/28 09:58:31;;;;;;;12.40;2.45;;;;;;;15.37;100.00;99580.53;5260603;28;20050;-72
2023/10/28 10:01:24;;;;;;;11.35;2.30;;;;;;;15.16;100.00;99582.66;5261976;28;20020;-71
2023/10/28 10:04:00;;;;;;;15.57;3.10;;;;;;;15.28;100.00;99566.50;5262808;28;20062;-71
2023/10/28 10:06:32;;;;;;;14.48;2.35;;;;;;;15.17;100.00;99576.22;5265950;28;20020;-71
2023/10/28 10:09:06;;;;;;;12.35;2.65;;;;;;;15.26;100.00;99572.16;5249664;28;20039;-71
2023/10/28 10:11:40;;;;;;;12.07;2.88;;;;;;;15.20;100.00;99561.41;5250167;28;20962;-71
2023/10/28 10:14:12;;;;;;;19.30;2.65;;;;;;;15.39;100.00;99564.91;5249785;28;20388;-71
2023/10/28 10:16:47;;;;;;;11.50;3.08;;;;;;;15.52;100.00;99567.44;5261072;28;20113;-71
2023/10/28 10:19:24;;;;;;;20.35;4.07;;;;;;;15.60;100.00;99571.69;5256606;28;20032;-71
2023/10/28 10:21:56;;;;;;;15.52;2.50;;;;;;;15.50;100.00;99570.34;5263732;28;20024;-71
2023/10/28 10:24:27;;;;;;;14.70;2.47;;;;;;;15.19;100.00;99566.00;5254153;28;20111;-71
2023/10/28 10:26:59;;;;;;;18.40;2.90;;;;;;;15.25;100.00;99566.94;5257156;28;20016;-71
2023/10/28 10:29:42;;;;;;;16.02;2.60;;;;;;;15.19;100.00;99562.47;5258941;28;20031;-71
2023/10/28 10:32:17;;;;;;;18.20;2.63;;;;;;;15.10;100.00;99561.94;5253815;28;20035;-71
2023/10/28 10:34:48;;;;;;;13.50;2.15;;;;;;;15.28;100.00;99563.81;5253743;28;20052;-71
2023/10/28 10:37:25;;;;;;;19.42;3.15;;;;;;;15.20;100.00;99564.94;5261757;28;20069;-71
2023/10/28 10:40:07;;;;;;;13.05;2.67;;;;;;;15.49;100.00;99573.28;5261882;28;20024;-71
2023/10/28 10:42:38;;;;;;;17.50;2.80;;;;;;;15.61;100.00;99571.44;5261985;28;20028;-71
2023/10/28 10:45:09;;;;;;;16.10;2.50;;;;;;;15.77;100.00;99565.44;5256092;28;20031;-71
2023/10/28 10:47:40;;;;;;;19.42;3.13;;;;;;;15.74;100.00;99570.47;5260950;28;20028;-71
2023/10/28 10:50:11;;;;;;;21.42;3.38;;;;;;;15.99;100.00;99562.19;5254546;28;20032;-71
2023/10/28 10:52:42;;;;;;;19.88;2.72;;;;;;;16.06;100.00;99560.19;5256881;28;20068;-71
2023/10/28 10:55:28;;;;;;;16.25;2.78;;;;;;;16.04;100.00;99565.81;5256934;28;20027;-71
2023/10/28 10:57:59;;;;;;;15.90;2.38;;;;;;;16.02;100.00;99556.31;5262527;28;20028;-71
2023/10/28 11:00:32;;;;;;;15.85;3.40;;;;;;;15.86;100.00;99565.09;5255653;28;20438;-71
2023/10/28 11:03:06;;;;;;;15.32;3.40;;;;;;;15.77;100.00;99562.72;5253761;28;20036;-71
2023/10/28 11:05:36;;;;;;;16.00;2.92;;;;;;;15.80;100.00;99570.34;5248764;28;20023;-71
2023/10/28 11:08:09;;;;;;;14.85;3.00;;;;;;;15.86;100.00;99578.59;5258770;28;20028;-71
2023/10/28 11:10:40;;;;;;;19.17;3.25;;;;;;;16.03;100.00;99563.38;5251249;28;20537;-71
2023/10/28 11:13:11;;;;;;;20.40;2.97;;;;;;;16.01;100.00;99552.78;5255635;28;20240;-71
2023/10/28 11:15:41;;;;;;;15.63;2.97;;;;;;;15.99;100.00;99560.28;5261526;28;20111;-71
2023/10/28 11:18:12;;;;;;;11.52;2.67;;;;;;;15.79;100.00;99565.19;5262642;28;20035;-71
2023/10/28 11:20:43;;;;;;;11.68;2.83;;;;;;;15.72;100.00;99568.00;5261072;28;20546;-71
2023/10/28 11:23:16;;;;;;;13.43;2.47;;;;;;;15.54;100.00;99568.84;5247817;28;20385;-71
2023/10/28 11:25:48;;;;;;;15.85;2.85;;;;;;;15.51;100.00;99555.81;5258282;28;20016;-71
2023/10/28 11:28:20;;;;;;;16.13;2.75;;;;;;;15.65;100.00;99561.03;5256081;28;20026;-71
2023/10/28 11:33:43;;;;;;;15.02;2.47;;;;;;;15.94;100.00;99564.75;5254936;28;20098;-71
2023/10/28 11:36:16;;;;;;;14.30;3.25;;;;;;;16.44;100.00;99565.16;5250597;28;21238;-71
2023/10/28 11:38:46;;;;;;;15.75;3.15;;;;;;;16.83;100.00;99557.38;5251308;28;20034;-71
2023/10/28 11:41:17;;;;;;;19.38;3.75;;;;;;;16.97;100.00;99564.19;5260739;28;20107;-71
2023/10/28 11:43:49;;;;;;;18.08;3.03;;;;;;;17.07;100.00;99558.16;5256351;28;20095;-71